Time;durP1;ratioP1;P1;durP2;ratioP2;P2;SDS_P1;SDS_P2;PMS_P1;PMS_P2;Temp;Humidity;BMP_temperature;BMP_pressure;BME280_temperature;BME280_humidity;BME280_pressure;Samples;Min_cycle;Max_cycle;Signal;HPM_P1;HPM_P2
2021/06/17 00:00:19;;;;;;;;;;;20.40;56.50;;;;;;491767;241;1070;-44
2021/06/17 00:02:20;;;;;;;;;;;20.40;56.40;;;;;;491425;241;1290;-44
2021/06/17 00:04:21;;;;;;;;;;;20.40;56.50;;;;;;491403;241;1147;-44
2021/06/17 00:06:23;;;;;;;;;;;20.40;56.50;;;;;;491341;241;1336;-44
2021/06/17 00:08:24;;;;;;;;;;;20.40;56.50;;;;;;491356;241;2185;-44
2021/06/17 00:10:25;;;;;;;;;;;20.40;56.50;;;;;;491526;241;1039;-44
2021/06/17 00:12:27;;;;;;;;;;;20.40;56.50;;;;;;491484;241;1516;-44
2021/06/17 00:14:28;;;;;;;;;;;20.30;56.40;;;;;;491265;241;1199;-44
2021/06/17 00:16:30;;;;;;;;;;;20.40;56.60;;;;;;491712;241;1516;-44
2021/06/17 00:18:31;;;;;;;;;;;20.40;56.50;;;;;;491744;241;1166;-44
2021/06/17 00:20:32;;;;;;;;;;;20.40;56.50;;;;;;491740;241;1005;-44
2021/06/17 00:22:34;;;;;;;;;;;20.40;56.50;;;;;;491414;241;1318;-44
2021/06/17 00:24:35;;;;;;;;;;;20.30;56.40;;;;;;491790;241;1021;-44
2021/06/17 00:26:36;;;;;;;;;;;20.40;56.50;;;;;;491506;241;1148;-44
2021/06/17 00:28:38;;;;;;;;;;;20.40;56.50;;;;;;491514;241;2191;-44
2021/06/17 00:30:39;;;;;;;;;;;20.30;56.50;;;;;;491549;241;1114;-44
2021/06/17 00:32:40;;;;;;;;;;;20.30;56.50;;;;;;491387;241;1222;-44
2021/06/17 00:34:42;;;;;;;;;;;20.40;56.50;;;;;;491776;241;1074;-44
2021/06/17 00:36:43;;;;;;;;;;;20.40;56.50;;;;;;491228;241;1403;-44
2021/06/17 00:38:44;;;;;;;;;;;20.40;56.50;;;;;;491776;241;1025;-44
2021/06/17 00:40:46;;;;;;;;;;;20.30;56.50;;;;;;491219;241;1315;-44
2021/06/17 00:42:47;;;;;;;;;;;20.30;56.40;;;;;;491725;241;1089;-45
2021/06/17 00:44:48;;;;;;;;;;;20.40;56.50;;;;;;491313;241;1065;-44
2021/06/17 00:46:50;;;;;;;;;;;20.40;56.40;;;;;;491308;241;1301;-44
2021/06/17 00:48:51;;;;;;;;;;;20.40;56.40;;;;;;491774;241;2180;-44
2021/06/17 00:50:53;;;;;;;;;;;20.40;56.50;;;;;;491415;241;1305;-44
2021/06/17 00:52:54;;;;;;;;;;;20.40;56.40;;;;;;491294;241;1187;-44
2021/06/17 00:54:55;;;;;;;;;;;20.40;56.50;;;;;;491364;241;1086;-44
2021/06/17 00:56:57;;;;;;;;;;;20.40;56.50;;;;;;491294;241;1113;-44
2021/06/17 00:58:58;;;;;;;;;;;20.30;56.50;;;;;;491532;241;1068;-44
2021/06/17 01:00:59;;;;;;;;;;;20.30;56.60;;;;;;491438;241;1441;-44
2021/06/17 01:03:01;;;;;;;;;;;20.30;56.50;;;;;;491405;241;1383;-44
2021/06/17 01:05:02;;;;;;;;;;;20.30;56.50;;;;;;491318;241;1247;-44
2021/06/17 01:07:03;;;;;;;;;;;20.30;56.50;;;;;;491571;241;1425;-44
2021/06/17 01:09:05;;;;;;;;;;;20.30;56.50;;;;;;491677;241;2128;-44
2021/06/17 01:11:06;;;;;;;;;;;20.40;56.50;;;;;;491565;241;1172;-44
2021/06/17 01:13:07;;;;;;;;;;;20.40;56.50;;;;;;491710;241;1059;-44
2021/06/17 01:15:09;;;;;;;;;;;20.30;56.50;;;;;;491718;241;1069;-44
2021/06/17 01:17:10;;;;;;;;;;;20.30;56.50;;;;;;491640;241;1073;-44
2021/06/17 01:19:11;;;;;;;;;;;20.30;56.50;;;;;;491401;241;1093;-44
2021/06/17 01:21:13;;;;;;;;;;;20.30;56.50;;;;;;491535;241;1378;-44
2021/06/17 01:23:14;;;;;;;;;;;20.30;56.50;;;;;;491436;241;1194;-44
2021/06/17 01:25:15;;;;;;;;;;;20.30;56.50;;;;;;491758;241;1079;-44
2021/06/17 01:27:17;;;;;;;;;;;20.30;56.50;;;;;;491697;241;1044;-44
2021/06/17 01:29:18;;;;;;;;;;;20.40;56.50;;;;;;491325;241;2113;-44
2021/06/17 01:31:19;;;;;;;;;;;20.30;56.40;;;;;;491632;241;1080;-44
2021/06/17 01:33:21;;;;;;;;;;;20.40;56.50;;;;;;491298;241;1035;-44
2021/06/17 01:35:22;;;;;;;;;;;20.40;56.40;;;;;;491514;241;1052;-44
2021/06/17 01:37:23;;;;;;;;;;;20.40;56.50;;;;;;491551;241;1251;-44
2021/06/17 01:39:25;;;;;;;;;;;20.40;56.50;;;;;;491699;241;1084;-44
2021/06/17 01:41:26;;;;;;;;;;;20.40;56.40;;;;;;491494;241;1495;-44
2021/06/17 01:43:27;;;;;;;;;;;20.40;56.40;;;;;;491757;241;1074;-44
2021/06/17 01:45:29;;;;;;;;;;;20.30;56.40;;;;;;491313;241;1188;-44
2021/06/17 01:47:30;;;;;;;;;;;20.30;56.50;;;;;;491316;241;1108;-44
2021/06/17 01:49:31;;;;;;;;;;;20.30;56.50;;;;;;491843;241;2120;-44
2021/06/17 01:51:32;;;;;;;;;;;20.30;56.50;;;;;;491272;241;1535;-44
2021/06/17 01:53:34;;;;;;;;;;;20.30;56.50;;;;;;491285;241;1193;-44
2021/06/17 01:55:35;;;;;;;;;;;20.30;56.40;;;;;;491266;241;1217;-44
2021/06/17 01:57:36;;;;;;;;;;;20.30;56.40;;;;;;491223;241;1133;-44
2021/06/17 01:59:39;;;;;;;;;;;20.30;56.40;;;;;;491329;241;1114;-45
2021/06/17 02:01:39;;;;;;;;;;;20.30;56.40;;;;;;491228;241;1874;-44
2021/06/17 02:03:40;;;;;;;;;;;20.30;56.40;;;;;;491277;241;1166;-44
2021/06/17 02:05:42;;;;;;;;;;;20.30;56.40;;;;;;491331;241;1083;-44
2021/06/17 02:07:43;;;;;;;;;;;20.40;56.40;;;;;;491212;241;2180;-44
2021/06/17 02:09:44;;;;;;;;;;;20.30;56.50;;;;;;491473;241;1040;-44
2021/06/17 02:11:46;;;;;;;;;;;20.30;56.50;;;;;;491302;241;1189;-44
2021/06/17 02:13:47;;;;;;;;;;;20.30;56.50;;;;;;491269;241;1580;-44
2021/06/17 02:15:48;;;;;;;;;;;20.30;56.40;;;;;;491335;241;1153;-44
2021/06/17 02:17:50;;;;;;;;;;;20.40;56.40;;;;;;491458;241;1177;-44
2021/06/17 02:19:51;;;;;;;;;;;20.30;56.40;;;;;;491421;241;1091;-44
2021/06/17 02:21:52;;;;;;;;;;;20.40;56.40;;;;;;491660;241;1344;-44
2021/06/17 02:23:54;;;;;;;;;;;20.40;56.40;;;;;;491461;241;1120;-44
2021/06/17 02:25:55;;;;;;;;;;;20.30;56.50;;;;;;491713;241;1246;-44
2021/06/17 02:27:57;;;;;;;;;;;20.30;56.40;;;;;;491248;241;2201;-44
2021/06/17 02:29:58;;;;;;;;;;;20.30;56.50;;;;;;491362;241;1048;-44
2021/06/17 02:31:59;;;;;;;;;;;20.30;56.50;;;;;;491323;241;1223;-44
2021/06/17 02:34:01;;;;;;;;;;;20.30;56.40;;;;;;491656;241;1077;-44
2021/06/17 02:36:02;;;;;;;;;;;20.30;56.50;;;;;;491641;241;1169;-44
2021/06/17 02:38:03;;;;;;;;;;;20.30;56.50;;;;;;491249;241;1106;-44
2021/06/17 02:40:05;;;;;;;;;;;20.30;56.50;;;;;;491779;241;1068;-44
2021/06/17 02:42:06;;;;;;;;;;;20.30;56.60;;;;;;491675;241;1184;-44
2021/06/17 02:44:07;;;;;;;;;;;20.30;56.50;;;;;;491680;241;1086;-44
2021/06/17 02:46:09;;;;;;;;;;;20.30;56.50;;;;;;491296;241;1804;-44
2021/06/17 02:48:10;;;;;;;;;;;20.30;56.40;;;;;;491590;241;2153;-44
2021/06/17 02:50:11;;;;;;;;;;;20.30;56.50;;;;;;491774;241;1261;-44
2021/06/17 02:52:13;;;;;;;;;;;20.30;56.50;;;;;;491276;241;1226;-44
2021/06/17 02:54:18;;;;;;;;;;;20.30;56.50;;;;;;491362;241;1184;-44
2021/06/17 02:56:16;;;;;;;;;;;20.30;56.50;;;;;;491198;241;1255;-44
2021/06/17 02:58:17;;;;;;;;;;;20.30;56.50;;;;;;491710;241;1035;-44
2021/06/17 03:00:18;;;;;;;;;;;20.30;56.50;;;;;;491745;241;1103;-44
2021/06/17 03:02:20;;;;;;;;;;;20.30;56.60;;;;;;491203;241;1242;-44
2021/06/17 03:04:21;;;;;;;;;;;20.30;56.50;;;;;;491274;241;1039;-44
2021/06/17 03:06:23;;;;;;;;;;;20.30;56.40;;;;;;491726;241;1136;-44
2021/06/17 03:08:24;;;;;;;;;;;20.30;56.40;;;;;;491658;241;2184;-44
2021/06/17 03:10:25;;;;;;;;;;;20.30;56.40;;;;;;491743;241;1119;-44
2021/06/17 03:12:27;;;;;;;;;;;20.30;56.50;;;;;;491236;241;1276;-44
2021/06/17 03:14:28;;;;;;;;;;;20.30;56.40;;;;;;491299;241;1069;-44
2021/06/17 03:16:29;;;;;;;;;;;20.30;56.50;;;;;;491237;241;1213;-44
2021/06/17 03:18:31;;;;;;;;;;;20.30;56.50;;;;;;491296;241;1227;-44
2021/06/17 03:20:32;;;;;;;;;;;20.30;56.50;;;;;;491557;241;1420;-44
2021/06/17 03:22:33;;;;;;;;;;;20.30;56.50;;;;;;491284;241;1493;-44
2021/06/17 03:24:36;;;;;;;;;;;20.30;56.60;;;;;;491470;241;1187;-44
2021/06/17 03:26:36;;;;;;;;;;;20.30;56.50;;;;;;491420;241;2200;-44
2021/06/17 03:28:37;;;;;;;;;;;20.30;56.50;;;;;;491235;241;2145;-44
2021/06/17 03:30:39;;;;;;;;;;;20.20;56.50;;;;;;491586;241;1050;-44
2021/06/17 03:32:40;;;;;;;;;;;20.30;56.60;;;;;;491256;241;1162;-44
2021/06/17 03:34:41;;;;;;;;;;;20.30;56.60;;;;;;491748;241;1178;-44
2021/06/17 03:36:43;;;;;;;;;;;20.30;56.60;;;;;;491508;241;1286;-45
2021/06/17 03:38:44;;;;;;;;;;;20.30;56.50;;;;;;491310;241;1176;-44
2021/06/17 03:40:45;;;;;;;;;;;20.30;56.50;;;;;;491339;241;1044;-44
2021/06/17 03:42:47;;;;;;;;;;;20.30;56.50;;;;;;491700;241;1159;-45
2021/06/17 03:44:48;;;;;;;;;;;20.30;56.50;;;;;;491307;241;1094;-45
2021/06/17 03:46:50;;;;;;;;;;;20.20;56.60;;;;;;491432;241;1168;-44
2021/06/17 03:48:51;;;;;;;;;;;20.30;56.50;;;;;;491744;241;2140;-44
2021/06/17 03:50:52;;;;;;;;;;;20.30;56.50;;;;;;491289;241;1244;-44
2021/06/17 03:52:53;;;;;;;;;;;20.30;56.50;;;;;;491706;241;1218;-44
2021/06/17 03:54:56;;;;;;;;;;;20.30;56.50;;;;;;491222;241;1312;-44
2021/06/17 03:56:57;;;;;;;;;;;20.30;56.40;;;;;;491396;241;2303;-44
2021/06/17 03:58:59;;;;;;;;;;;20.30;56.50;;;;;;491367;241;1102;-44
2021/06/17 04:01:00;;;;;;;;;;;20.30;56.50;;;;;;491253;241;1720;-44
2021/06/17 04:03:01;;;;;;;;;;;20.30;56.60;;;;;;491282;241;1283;-44
2021/06/17 04:05:03;;;;;;;;;;;20.20;56.50;;;;;;491266;241;1058;-44
2021/06/17 04:07:04;;;;;;;;;;;20.20;56.50;;;;;;491589;241;1263;-44
2021/06/17 04:09:06;;;;;;;;;;;20.20;56.60;;;;;;491294;241;2188;-44
2021/06/17 04:11:07;;;;;;;;;;;20.20;56.60;;;;;;491687;241;1264;-44
2021/06/17 04:13:08;;;;;;;;;;;20.20;56.60;;;;;;491723;241;1761;-44
2021/06/17 04:15:09;;;;;;;;;;;20.20;56.60;;;;;;491580;241;1363;-44
2021/06/17 04:17:11;;;;;;;;;;;20.20;56.60;;;;;;491341;241;1657;-44
2021/06/17 04:19:12;;;;;;;;;;;20.20;56.60;;;;;;491279;241;1077;-44
2021/06/17 04:21:13;;;;;;;;;;;20.30;56.60;;;;;;491339;241;1669;-44
2021/06/17 04:23:15;;;;;;;;;;;20.20;56.50;;;;;;491646;241;1295;-44
2021/06/17 04:25:16;;;;;;;;;;;20.30;56.60;;;;;;491318;241;1200;-44
2021/06/17 04:27:18;;;;;;;;;;;20.20;56.50;;;;;;491309;241;1346;-44
2021/06/17 04:29:19;;;;;;;;;;;20.30;56.50;;;;;;491257;241;2180;-44
2021/06/17 04:31:20;;;;;;;;;;;20.20;56.50;;;;;;491362;241;1129;-44
2021/06/17 04:33:22;;;;;;;;;;;20.30;56.60;;;;;;491213;241;1100;-44
2021/06/17 04:35:23;;;;;;;;;;;20.20;56.50;;;;;;491236;241;1065;-44
2021/06/17 04:37:26;;;;;;;;;;;20.30;56.60;;;;;;491281;241;1187;-44
2021/06/17 04:39:27;;;;;;;;;;;20.30;56.60;;;;;;491164;241;2029;-44
2021/06/17 04:41:28;;;;;;;;;;;20.30;56.60;;;;;;491391;241;1088;-44
2021/06/17 04:43:29;;;;;;;;;;;20.30;56.40;;;;;;491126;241;1057;-45
2021/06/17 04:45:30;;;;;;;;;;;20.30;56.50;;;;;;491251;241;1240;-44
2021/06/17 04:47:32;;;;;;;;;;;20.30;56.50;;;;;;491153;241;1037;-44
2021/06/17 04:49:33;;;;;;;;;;;20.30;56.50;;;;;;491214;241;2188;-44
2021/06/17 04:51:36;;;;;;;;;;;20.30;56.50;;;;;;491008;241;1297;-44
2021/06/17 04:53:36;;;;;;;;;;;20.20;56.50;;;;;;491133;241;1085;-44
2021/06/17 04:55:38;;;;;;;;;;;20.20;56.50;;;;;;491070;241;1211;-44
2021/06/17 04:57:39;;;;;;;;;;;20.30;56.60;;;;;;491135;241;1096;-44
2021/06/17 04:59:40;;;;;;;;;;;20.30;56.60;;;;;;491130;241;1108;-44
2021/06/17 05:01:42;;;;;;;;;;;20.30;56.50;;;;;;491161;241;1247;-45
2021/06/17 05:03:43;;;;;;;;;;;20.20;56.60;;;;;;491151;241;1174;-44
2021/06/17 05:05:45;;;;;;;;;;;20.20;56.60;;;;;;491360;241;1080;-44
2021/06/17 05:10:48;;;;;;;;;;;20.20;56.50;;;;;;491260;241;1052;-44
2021/06/17 05:12:15;;;;;;;;;;;20.20;56.50;;;;;;491104;243;1757;-44
2021/06/17 05:14:16;;;;;;;;;;;20.20;56.50;;;;;;491313;241;1061;-44
2021/06/17 05:16:17;;;;;;;;;;;20.20;56.50;;;;;;491014;241;1069;-44
2021/06/17 05:18:19;;;;;;;;;;;20.20;56.50;;;;;;491248;241;1140;-44
2021/06/17 05:20:20;;;;;;;;;;;20.30;56.50;;;;;;491227;241;1063;-44
2021/06/17 05:22:21;;;;;;;;;;;20.30;56.50;;;;;;491082;241;1136;-44
2021/06/17 05:24:23;;;;;;;;;;;20.30;56.60;;;;;;491023;241;1103;-44
2021/06/17 05:26:24;;;;;;;;;;;20.30;56.50;;;;;;490934;241;1190;-44
2021/06/17 05:28:25;;;;;;;;;;;20.20;56.50;;;;;;491204;241;1069;-44
2021/06/17 05:30:27;;;;;;;;;;;20.20;56.50;;;;;;490898;241;2199;-44
2021/06/17 05:32:28;;;;;;;;;;;20.30;56.50;;;;;;491053;241;1096;-44
2021/06/17 05:34:29;;;;;;;;;;;20.30;56.50;;;;;;491346;241;1089;-44
2021/06/17 05:36:31;;;;;;;;;;;20.30;56.50;;;;;;491147;241;1108;-44
2021/06/17 05:38:33;;;;;;;;;;;20.20;56.50;;;;;;490937;241;1083;-44
2021/06/17 05:40:33;;;;;;;;;;;20.30;56.50;;;;;;490779;241;1625;-44
2021/06/17 05:42:35;;;;;;;;;;;20.20;56.50;;;;;;490821;241;1056;-44
2021/06/17 05:44:36;;;;;;;;;;;20.20;56.50;;;;;;490929;241;1083;-44
2021/06/17 05:46:40;;;;;;;;;;;20.30;56.60;;;;;;490902;241;1231;-44
2021/06/17 05:48:40;;;;;;;;;;;20.30;56.50;;;;;;490908;241;2227;-45
2021/06/17 05:50:40;;;;;;;;;;;20.30;56.60;;;;;;490717;241;2207;-44
2021/06/17 05:52:41;;;;;;;;;;;20.30;56.50;;;;;;490937;241;1236;-44
2021/06/17 05:54:42;;;;;;;;;;;20.20;56.50;;;;;;490838;241;1113;-44
2021/06/17 05:56:44;;;;;;;;;;;20.20;56.50;;;;;;490803;241;1295;-44
2021/06/17 05:58:45;;;;;;;;;;;20.20;56.50;;;;;;490899;241;1106;-44
2021/06/17 06:00:46;;;;;;;;;;;20.30;56.60;;;;;;490923;241;1279;-44
2021/06/17 06:02:48;;;;;;;;;;;20.30;56.50;;;;;;490737;241;1255;-44
2021/06/17 06:04:49;;;;;;;;;;;20.30;56.50;;;;;;490817;241;1088;-44
2021/06/17 06:06:50;;;;;;;;;;;20.30;56.50;;;;;;490942;241;1334;-44
2021/06/17 06:08:52;;;;;;;;;;;20.30;56.50;;;;;;491014;241;1325;-44
2021/06/17 06:10:53;;;;;;;;;;;20.20;56.50;;;;;;490613;241;2109;-44
2021/06/17 06:12:54;;;;;;;;;;;20.30;56.50;;;;;;490765;241;1210;-44
2021/06/17 06:14:56;;;;;;;;;;;20.30;56.50;;;;;;490864;235;1279;-44
2021/06/17 06:16:57;;;;;;;;;;;20.30;56.50;;;;;;490772;241;1266;-44
2021/06/17 06:18:58;;;;;;;;;;;20.30;56.40;;;;;;490920;241;1255;-44
2021/06/17 06:21:00;;;;;;;;;;;20.30;56.40;;;;;;490733;241;1432;-44
2021/06/17 06:23:01;;;;;;;;;;;20.30;56.30;;;;;;490854;241;1216;-44
2021/06/17 06:25:02;;;;;;;;;;;20.30;56.30;;;;;;490965;241;1078;-44
2021/06/17 06:27:04;;;;;;;;;;;20.30;56.40;;;;;;490913;241;1222;-44
2021/06/17 06:29:05;;;;;;;;;;;20.30;56.40;;;;;;490800;241;1121;-44
2021/06/17 06:31:07;;;;;;;;;;;20.30;56.40;;;;;;490531;241;2172;-44
2021/06/17 06:33:08;;;;;;;;;;;20.20;56.40;;;;;;490678;241;1093;-44
2021/06/17 06:35:09;;;;;;;;;;;20.20;56.40;;;;;;490808;241;1083;-44
2021/06/17 06:37:11;;;;;;;;;;;20.30;56.40;;;;;;490674;241;1278;-44
2021/06/17 06:39:12;;;;;;;;;;;20.30;56.40;;;;;;490570;241;1108;-44
2021/06/17 06:41:13;;;;;;;;;;;20.30;56.40;;;;;;490618;241;1327;-44
2021/06/17 06:43:16;;;;;;;;;;;20.30;56.40;;;;;;490946;241;1053;-44
2021/06/17 06:45:16;;;;;;;;;;;20.20;56.50;;;;;;490695;241;1980;-44
2021/06/17 06:47:17;;;;;;;;;;;20.20;56.50;;;;;;490670;235;1267;-44
2021/06/17 06:49:19;;;;;;;;;;;20.30;56.60;;;;;;490735;241;1162;-44
2021/06/17 06:51:20;;;;;;;;;;;20.30;56.50;;;;;;490580;241;2187;-44
2021/06/17 06:53:21;;;;;;;;;;;20.30;56.50;;;;;;490861;241;1061;-44
2021/06/17 06:55:23;;;;;;;;;;;20.30;56.40;;;;;;490765;241;1138;-44
2021/06/17 06:57:24;;;;;;;;;;;20.30;56.40;;;;;;490741;241;2168;-44
2021/06/17 06:59:25;;;;;;;;;;;20.30;56.40;;;;;;490992;241;1223;-44
2021/06/17 07:01:27;;;;;;;;;;;20.30;56.30;;;;;;490750;241;1224;-44
2021/06/17 07:03:28;;;;;;;;;;;20.30;56.30;;;;;;490715;241;1067;-44
2021/06/17 07:05:30;;;;;;;;;;;20.30;56.30;;;;;;490729;241;1168;-44
2021/06/17 07:07:31;;;;;;;;;;;20.40;56.30;;;;;;490560;241;1123;-44
2021/06/17 07:09:32;;;;;;;;;;;20.40;56.20;;;;;;490628;241;2180;-44
2021/06/17 07:11:34;;;;;;;;;;;20.40;56.40;;;;;;490542;241;1343;-44
2021/06/17 07:13:35;;;;;;;;;;;20.40;56.30;;;;;;490631;241;1093;-44
2021/06/17 07:15:36;;;;;;;;;;;20.40;56.20;;;;;;490538;241;1190;-44
2021/06/17 07:17:38;;;;;;;;;;;20.40;56.10;;;;;;490429;241;1231;-44
2021/06/17 07:19:39;;;;;;;;;;;20.50;56.20;;;;;;490092;241;1173;-44
2021/06/17 07:21:40;;;;;;;;;;;20.40;56.10;;;;;;490543;241;1094;-45
2021/06/17 07:23:42;;;;;;;;;;;20.50;56.20;;;;;;490552;241;1136;-44
2021/06/17 07:25:43;;;;;;;;;;;20.50;56.20;;;;;;490451;241;1162;-44
2021/06/17 07:27:44;;;;;;;;;;;20.50;56.10;;;;;;490380;241;1252;-44
2021/06/17 07:29:45;;;;;;;;;;;20.50;56.10;;;;;;490393;241;2188;-44
2021/06/17 07:31:47;;;;;;;;;;;20.50;56.10;;;;;;490252;241;1199;-45
2021/06/17 07:33:48;;;;;;;;;;;20.50;56.10;;;;;;490533;241;1371;-44
2021/06/17 07:35:49;;;;;;;;;;;20.50;56.10;;;;;;490339;241;1362;-45
2021/06/17 07:37:51;;;;;;;;;;;20.60;56.10;;;;;;490199;241;1236;-44
2021/06/17 07:39:52;;;;;;;;;;;20.60;56.00;;;;;;490302;241;1108;-44
2021/06/17 07:41:53;;;;;;;;;;;20.60;56.00;;;;;;490216;241;1176;-44
2021/06/17 07:43:55;;;;;;;;;;;20.60;55.90;;;;;;490246;241;1139;-44
2021/06/17 07:45:56;;;;;;;;;;;20.60;55.90;;;;;;490147;241;1156;-44
2021/06/17 07:47:58;;;;;;;;;;;20.60;56.10;;;;;;490050;241;1194;-44
2021/06/17 07:49:59;;;;;;;;;;;20.60;56.00;;;;;;489666;241;2196;-44
2021/06/17 07:52:00;;;;;;;;;;;20.60;56.00;;;;;;490332;241;1216;-45
2021/06/17 07:54:02;;;;;;;;;;;20.60;56.00;;;;;;490262;241;1180;-44
2021/06/17 07:56:03;;;;;;;;;;;20.60;56.10;;;;;;490337;241;1404;-44
2021/06/17 07:58:04;;;;;;;;;;;20.60;56.10;;;;;;490980;241;1058;-44
2021/06/17 08:00:06;;;;;;;;;;;20.60;56.10;;;;;;490400;241;1110;-45
2021/06/17 08:02:07;;;;;;;;;;;20.60;56.10;;;;;;490685;241;1224;-44
2021/06/17 08:04:08;;;;;;;;;;;20.60;56.10;;;;;;490396;241;1073;-44
2021/06/17 08:06:10;;;;;;;;;;;20.60;56.00;;;;;;490356;241;1341;-44
2021/06/17 08:08:11;;;;;;;;;;;20.60;56.00;;;;;;490714;241;1388;-44
2021/06/17 08:10:12;;;;;;;;;;;20.60;55.90;;;;;;490517;241;2149;-44
2021/06/17 08:12:14;;;;;;;;;;;20.70;55.90;;;;;;490336;241;1261;-45
2021/06/17 08:14:18;;;;;;;;;;;20.70;55.70;;;;;;490504;241;1247;-44
2021/06/17 08:16:17;;;;;;;;;;;20.70;55.70;;;;;;490284;241;1391;-44
2021/06/17 08:18:19;;;;;;;;;;;20.70;55.80;;;;;;491302;241;1114;-44
2021/06/17 08:20:20;;;;;;;;;;;20.70;55.80;;;;;;491184;241;1108;-44
2021/06/17 08:22:25;;;;;;;;;;;20.70;55.80;;;;;;490519;241;1204;-44
2021/06/17 08:24:23;;;;;;;;;;;20.70;55.80;;;;;;490557;241;1243;-44
2021/06/17 08:26:24;;;;;;;;;;;20.70;55.90;;;;;;490411;241;1612;-44
2021/06/17 08:28:27;;;;;;;;;;;20.70;55.90;;;;;;490482;241;1190;-44
2021/06/17 08:30:28;;;;;;;;;;;20.70;55.90;;;;;;490419;241;2212;-44
2021/06/17 08:32:29;;;;;;;;;;;20.60;56.00;;;;;;490273;241;1177;-44
2021/06/17 08:34:30;;;;;;;;;;;20.70;56.10;;;;;;490453;241;1110;-44
2021/06/17 08:36:32;;;;;;;;;;;20.70;56.00;;;;;;490531;241;1108;-44
2021/06/17 08:38:34;;;;;;;;;;;20.70;56.10;;;;;;490415;241;1241;-44
2021/06/17 08:40:34;;;;;;;;;;;20.70;55.90;;;;;;490373;241;2037;-44
2021/06/17 08:42:36;;;;;;;;;;;20.70;55.80;;;;;;490425;241;1201;-45
2021/06/17 08:44:37;;;;;;;;;;;20.70;55.80;;;;;;490354;241;1118;-44
2021/06/17 08:46:38;;;;;;;;;;;20.80;55.80;;;;;;490265;241;1230;-44
2021/06/17 08:48:41;;;;;;;;;;;20.80;55.60;;;;;;490294;241;1209;-44
2021/06/17 08:50:41;;;;;;;;;;;20.90;55.60;;;;;;490339;241;2216;-44
2021/06/17 08:52:43;;;;;;;;;;;20.90;55.50;;;;;;490429;241;1522;-44
2021/06/17 08:54:44;;;;;;;;;;;20.90;55.50;;;;;;490463;241;1935;-44
2021/06/17 08:56:45;;;;;;;;;;;20.90;55.40;;;;;;490577;241;1342;-44
2021/06/17 08:58:46;;;;;;;;;;;20.90;55.50;;;;;;490482;241;1167;-44
2021/06/17 09:00:48;;;;;;;;;;;20.90;55.40;;;;;;490498;241;1275;-45
2021/06/17 09:02:49;;;;;;;;;;;20.90;55.40;;;;;;490348;240;1217;-44
2021/06/17 09:04:50;;;;;;;;;;;20.90;55.40;;;;;;490332;241;1124;-44
2021/06/17 09:06:52;;;;;;;;;;;21.00;55.40;;;;;;490388;241;1200;-44
2021/06/17 09:08:53;;;;;;;;;;;21.00;55.40;;;;;;490371;241;1159;-44
2021/06/17 09:10:54;;;;;;;;;;;21.00;55.30;;;;;;490375;241;2196;-44
2021/06/17 09:12:56;;;;;;;;;;;21.00;55.40;;;;;;490365;241;1190;-44
2021/06/17 09:14:58;;;;;;;;;;;20.90;55.50;;;;;;490415;241;2469;-44
2021/06/17 09:16:58;;;;;;;;;;;20.90;55.60;;;;;;490244;241;2404;-44
2021/06/17 09:19:00;;;;;;;;;;;20.90;55.60;;;;;;490371;241;1308;-44
2021/06/17 09:21:01;;;;;;;;;;;20.90;55.70;;;;;;490442;241;1233;-44
2021/06/17 09:23:02;;;;;;;;;;;20.90;55.70;;;;;;490554;241;1093;-44
2021/06/17 09:25:05;;;;;;;;;;;20.90;55.70;;;;;;490548;241;1227;-44
2021/06/17 09:27:06;;;;;;;;;;;20.80;55.70;;;;;;490553;241;1707;-45
2021/06/17 09:29:07;;;;;;;;;;;20.90;55.70;;;;;;490506;241;1218;-45
2021/06/17 09:31:08;;;;;;;;;;;20.90;55.80;;;;;;490424;241;2204;-45
2021/06/17 09:33:13;;;;;;;;;;;20.90;55.80;;;;;;490324;241;1089;-44
2021/06/17 09:35:14;;;;;;;;;;;20.90;55.80;;;;;;490508;241;1099;-44
2021/06/17 09:37:15;;;;;;;;;;;20.90;55.80;;;;;;490465;241;1093;-45
2021/06/17 09:39:18;;;;;;;;;;;20.90;55.80;;;;;;490382;241;1176;-44
2021/06/17 09:41:18;;;;;;;;;;;20.90;55.60;;;;;;490304;241;2297;-45
2021/06/17 09:43:20;;;;;;;;;;;20.90;55.50;;;;;;490233;241;1174;-45
2021/06/17 09:45:21;;;;;;;;;;;20.90;55.70;;;;;;490575;241;1853;-44
2021/06/17 09:47:22;;;;;;;;;;;20.90;55.70;;;;;;490475;241;1221;-44
2021/06/17 09:49:24;;;;;;;;;;;20.90;55.70;;;;;;490563;241;1122;-44
2021/06/17 09:51:25;;;;;;;;;;;20.90;55.60;;;;;;490405;241;2192;-44
2021/06/17 09:53:26;;;;;;;;;;;20.90;55.60;;;;;;490413;241;1160;-44
2021/06/17 09:55:28;;;;;;;;;;;20.90;55.60;;;;;;490292;241;1148;-44
2021/06/17 09:57:29;;;;;;;;;;;20.90;55.60;;;;;;490141;241;1121;-45
2021/06/17 09:59:30;;;;;;;;;;;20.90;55.60;;;;;;490311;241;1226;-44
2021/06/17 10:01:34;;;;;;;;;;;20.90;55.60;;;;;;490208;241;1369;-44
2021/06/17 10:03:34;;;;;;;;;;;20.90;55.60;;;;;;490312;241;1422;-44
2021/06/17 10:05:35;;;;;;;;;;;20.90;55.60;;;;;;490240;241;1325;-44
2021/06/17 10:07:36;;;;;;;;;;;21.00;55.60;;;;;;490290;241;1068;-44
2021/06/17 10:09:38;;;;;;;;;;;20.90;55.60;;;;;;490229;241;1077;-44
2021/06/17 10:11:39;;;;;;;;;;;21.00;55.60;;;;;;490358;241;2184;-44
2021/06/17 10:13:40;;;;;;;;;;;21.00;55.60;;;;;;490409;241;1426;-44
2021/06/17 10:15:42;;;;;;;;;;;21.00;55.60;;;;;;490375;241;1297;-44
2021/06/17 10:17:43;;;;;;;;;;;21.00;55.60;;;;;;490313;241;1299;-44
2021/06/17 10:19:45;;;;;;;;;;;21.00;55.60;;;;;;490250;241;1060;-44
2021/06/17 10:21:45;;;;;;;;;;;21.00;55.60;;;;;;490088;241;1261;-44
2021/06/17 10:23:49;;;;;;;;;;;21.00;55.60;;;;;;490172;241;1499;-44
2021/06/17 10:25:48;;;;;;;;;;;21.00;55.70;;;;;;490133;241;2320;-44
2021/06/17 10:27:50;;;;;;;;;;;21.00;55.60;;;;;;490589;241;1285;-44
2021/06/17 10:29:51;;;;;;;;;;;21.00;55.60;;;;;;491021;241;1230;-44
2021/06/17 10:31:52;;;;;;;;;;;21.00;55.60;;;;;;490568;241;2188;-44
2021/06/17 10:33:54;;;;;;;;;;;21.00;55.50;;;;;;491200;241;1047;-45
2021/06/17 10:35:55;;;;;;;;;;;21.00;55.50;;;;;;491138;241;1188;-44
2021/06/17 10:37:56;;;;;;;;;;;21.00;55.60;;;;;;491077;241;1018;-45
2021/06/17 10:40:02;;;;;;;;;;;21.00;55.60;;;;;;491292;241;943;-45
2021/06/17 10:42:00;;;;;;;;;;;21.10;55.50;;;;;;491031;241;2184;-45
2021/06/17 10:44:01;;;;;;;;;;;21.00;55.60;;;;;;490443;241;1200;-44
2021/06/17 10:46:03;;;;;;;;;;;21.00;55.60;;;;;;490399;241;1236;-44
2021/06/17 10:48:11;;;;;;;;;;;21.10;55.50;;;;;;491352;241;1132;-44
2021/06/17 10:50:11;;;;;;;;;;;21.10;55.50;;;;;;490666;241;1880;-44
2021/06/17 10:52:13;;;;;;;;;;;21.00;55.50;;;;;;490567;241;2137;-44
2021/06/17 10:54:14;;;;;;;;;;;21.00;55.50;;;;;;490466;241;1242;-45
2021/06/17 10:56:20;;;;;;;;;;;21.00;55.60;;;;;;490381;241;1352;-44
2021/06/17 10:58:21;;;;;;;;;;;21.00;55.60;;;;;;490892;241;1492;-44
2021/06/17 11:00:22;;;;;;;;;;;21.00;55.60;;;;;;490912;241;1159;-44
2021/06/17 11:02:23;;;;;;;;;;;21.00;55.60;;;;;;490723;241;1015;-45
2021/06/17 11:04:25;;;;;;;;;;;21.00;55.60;;;;;;491223;241;1082;-45
2021/06/17 11:06:26;;;;;;;;;;;21.10;55.60;;;;;;490457;241;1247;-45
2021/06/17 11:08:28;;;;;;;;;;;21.10;55.60;;;;;;490565;241;1153;-44
2021/06/17 11:10:29;;;;;;;;;;;21.10;55.60;;;;;;490500;241;2318;-44
2021/06/17 11:12:30;;;;;;;;;;;21.10;55.60;;;;;;490449;241;2172;-45
2021/06/17 11:14:31;;;;;;;;;;;21.10;55.60;;;;;;490460;241;1334;-44
2021/06/17 11:16:33;;;;;;;;;;;21.10;55.50;;;;;;490301;238;1198;-44
2021/06/17 11:18:34;;;;;;;;;;;21.10;55.40;;;;;;490383;241;1094;-45
2021/06/17 11:20:35;;;;;;;;;;;21.10;55.40;;;;;;489677;241;1187;-45
2021/06/17 11:22:37;;;;;;;;;;;21.20;55.40;;;;;;490232;241;1168;-44
2021/06/17 11:24:38;;;;;;;;;;;21.10;55.40;;;;;;490379;241;1148;-44
2021/06/17 11:26:40;;;;;;;;;;;21.10;55.40;;;;;;490283;241;1298;-44
2021/06/17 11:28:41;;;;;;;;;;;21.20;55.40;;;;;;490472;241;1395;-45
2021/06/17 11:30:42;;;;;;;;;;;21.10;55.40;;;;;;490505;241;1276;-44
2021/06/17 11:32:44;;;;;;;;;;;21.10;55.40;;;;;;490143;241;2204;-45
2021/06/17 11:34:45;;;;;;;;;;;21.10;55.50;;;;;;490199;241;2118;-45
2021/06/17 11:36:46;;;;;;;;;;;21.20;55.50;;;;;;490641;241;2276;-44
2021/06/17 11:38:47;;;;;;;;;;;21.10;55.40;;;;;;490585;241;1142;-44
2021/06/17 11:40:48;;;;;;;;;;;21.20;55.40;;;;;;490741;241;1133;-45
2021/06/17 11:42:50;;;;;;;;;;;21.10;55.30;;;;;;490501;241;1291;-44
2021/06/17 11:44:51;;;;;;;;;;;21.20;55.20;;;;;;490328;241;1188;-44
2021/06/17 11:46:52;;;;;;;;;;;21.20;55.10;;;;;;490297;241;1226;-45
2021/06/17 11:48:54;;;;;;;;;;;21.30;55.20;;;;;;490328;241;1172;-44
2021/06/17 11:50:55;;;;;;;;;;;21.20;55.10;;;;;;490261;241;1256;-44
2021/06/17 11:52:58;;;;;;;;;;;21.20;55.10;;;;;;490223;241;2204;-45
2021/06/17 11:54:58;;;;;;;;;;;21.20;55.20;;;;;;490317;241;1844;-44
2021/06/17 11:56:59;;;;;;;;;;;21.20;55.30;;;;;;489966;241;1301;-44
2021/06/17 11:59:00;;;;;;;;;;;21.20;55.30;;;;;;489619;241;1061;-44